Time;durP1;ratioP1;P1;durP2;ratioP2;P2;SDS_P1;SDS_P2;PMS_P1;PMS_P2;Temp;Humidity;BMP_temperature;BMP_pressure;BME280_temperature;BME280_humidity;BME280_pressure;Samples;Min_cycle;Max_cycle;Signal;HPM_P1;HPM_P2
2023/07/02 00:00:22;;;;;;;52.90;16.83;;;;;;;;;;5064225;28;20151;-62
2023/07/02 00:02:49;;;;;;;45.22;16.80;;;;;;;;;;5081001;28;20046;-61
2023/07/02 00:05:17;;;;;;;46.83;16.67;;;;;;;;;;5083117;28;20044;-62
2023/07/02 00:07:44;;;;;;;47.08;15.88;;;;;;;;;;5061004;28;20044;-62
2023/07/02 00:10:11;;;;;;;43.42;15.23;;;;;;;;;;5081937;28;20044;-61
2023/07/02 00:12:37;;;;;;;52.50;16.20;;;;;;;;;;5082156;28;20060;-61
2023/07/02 00:15:05;;;;;;;48.08;17.67;;;;;;;;;;5082100;28;20097;-61
2023/07/02 00:17:31;;;;;;;58.58;17.55;;;;;;;;;;5062356;28;20045;-61
2023/07/02 00:20:02;;;;;;;97.07;21.15;;;;;;;;;;5080681;28;20044;-61
2023/07/02 00:22:31;;;;;;;56.40;19.05;;;;;;;;;;5061816;28;20054;-61
2023/07/02 00:24:57;;;;;;;37.80;15.77;;;;;;;;;;5081262;28;20101;-61
2023/07/02 00:27:24;;;;;;;51.88;17.67;;;;;;;;;;5079625;28;20032;-61
2023/07/02 00:29:51;;;;;;;54.83;17.05;;;;;;;;;;5063458;28;20068;-61
2023/07/02 00:32:18;;;;;;;53.63;17.63;;;;;;;;;;5082731;28;20052;-61
2023/07/02 00:34:44;;;;;;;47.58;17.52;;;;;;;;;;5063462;28;20075;-61
2023/07/02 00:37:11;;;;;;;59.90;17.23;;;;;;;;;;5080610;28;20083;-61
2023/07/02 00:39:38;;;;;;;38.92;17.08;;;;;;;;;;5061610;28;20114;-61
2023/07/02 00:42:04;;;;;;;41.35;17.33;;;;;;;;;;5084567;28;20102;-61
2023/07/02 00:44:31;;;;;;;50.78;16.83;;;;;;;;;;5058495;28;20055;-61
2023/07/02 00:46:58;;;;;;;99.28;20.48;;;;;;;;;;5079627;28;20056;-60
2023/07/02 00:49:25;;;;;;;46.65;17.60;;;;;;;;;;5083276;28;20048;-61
2023/07/02 00:51:52;;;;;;;48.35;17.70;;;;;;;;;;5083444;28;20060;-61
2023/07/02 00:54:20;;;;;;;39.15;19.08;;;;;;;;;;5078299;28;20037;-61
2023/07/02 00:56:46;;;;;;;36.65;16.25;;;;;;;;;;5081932;28;20044;-56
2023/07/02 00:59:14;;;;;;;52.03;19.08;;;;;;;;;;5081484;28;20036;-63
2023/07/02 01:01:41;;;;;;;46.40;19.13;;;;;;;;;;5077710;28;20056;-56
2023/07/02 01:04:09;;;;;;;42.60;18.83;;;;;;;;;;5063386;28;20044;-61
2023/07/02 01:06:40;;;;;;;48.53;18.55;;;;;;;;;;5063389;28;20087;-60
2023/07/02 01:09:07;;;;;;;48.45;20.17;;;;;;;;;;5059588;28;20044;-61
2023/07/02 01:11:36;;;;;;;46.03;19.98;;;;;;;;;;5061891;28;20143;-61
2023/07/02 01:14:09;;;;;;;59.33;20.25;;;;;;;;;;5063250;28;20060;-62
2023/07/02 01:16:36;;;;;;;60.80;21.52;;;;;;;;;;5083221;28;20125;-61
2023/07/02 01:19:04;;;;;;;50.00;20.08;;;;;;;;;;5047033;28;20056;-61
2023/07/02 01:21:32;;;;;;;51.33;20.10;;;;;;;;;;5060206;28;20096;-61
2023/07/02 01:24:02;;;;;;;74.10;24.23;;;;;;;;;;5084974;28;20044;-62
2023/07/02 01:26:33;;;;;;;63.80;21.50;;;;;;;;;;5081539;28;20068;-54
2023/07/02 01:29:12;;;;;;;86.57;23.42;;;;;;;;;;5078298;28;20047;-61
2023/07/02 01:31:39;;;;;;;50.40;22.25;;;;;;;;;;5064290;28;20052;-61
2023/07/02 01:34:08;;;;;;;43.55;20.20;;;;;;;;;;5080354;28;20132;-63
2023/07/02 01:36:35;;;;;;;54.25;20.88;;;;;;;;;;5060427;28;20142;-62
2023/07/02 01:39:02;;;;;;;41.03;19.00;;;;;;;;;;5077234;28;20127;-61
2023/07/02 01:41:29;;;;;;;54.83;22.05;;;;;;;;;;5065059;28;21325;-61
2023/07/02 01:43:56;;;;;;;107.82;22.13;;;;;;;;;;5080543;28;20040;-63
2023/07/02 01:46:23;;;;;;;56.53;22.20;;;;;;;;;;5040928;28;20068;-61
2023/07/02 01:48:50;;;;;;;49.38;20.60;;;;;;;;;;5081875;28;20127;-61
2023/07/02 01:51:17;;;;;;;54.38;20.83;;;;;;;;;;5083974;28;20047;-61
2023/07/02 01:53:44;;;;;;;54.65;21.50;;;;;;;;;;5084638;28;20032;-61
2023/07/02 01:56:10;;;;;;;63.80;21.42;;;;;;;;;;5084736;28;20074;-62
2023/07/02 01:58:37;;;;;;;54.65;22.05;;;;;;;;;;5064465;28;20048;-61
2023/07/02 02:01:04;;;;;;;463.27;48.30;;;;;;;;;;5045065;22;1106477;-60
2023/07/02 02:03:31;;;;;;;59.40;23.67;;;;;;;;;;5064972;28;20040;-62
2023/07/02 02:05:58;;;;;;;91.20;24.55;;;;;;;;;;5105370;28;20032;-61
2023/07/02 02:08:25;;;;;;;70.63;25.00;;;;;;;;;;5082119;28;20040;-64
2023/07/02 02:10:51;;;;;;;101.50;25.65;;;;;;;;;;5102300;28;20040;-60
2023/07/02 02:13:18;;;;;;;50.53;22.77;;;;;;;;;;5081461;28;20485;-61
2023/07/02 02:15:44;;;;;;;58.08;24.10;;;;;;;;;;5103704;28;20106;-60
2023/07/02 02:18:11;;;;;;;68.32;24.77;;;;;;;;;;5104074;28;20050;-60
2023/07/02 02:20:38;;;;;;;59.20;23.55;;;;;;;;;;5103680;28;20040;-60
2023/07/02 02:23:05;;;;;;;73.20;24.52;;;;;;;;;;5102832;28;20045;-59
2023/07/02 02:25:31;;;;;;;54.65;24.83;;;;;;;;;;5098538;28;20118;-60
2023/07/02 02:27:59;;;;;;;62.03;25.20;;;;;;;;;;5067031;28;20083;-60
2023/07/02 02:30:26;;;;;;;70.63;24.30;;;;;;;;;;5088683;28;20044;-61
2023/07/02 02:32:53;;;;;;;65.63;25.30;;;;;;;;;;5086750;28;20131;-59
2023/07/02 02:35:20;;;;;;;63.55;24.73;;;;;;;;;;5082248;28;20039;-60
2023/07/02 02:37:47;;;;;;;56.10;24.38;;;;;;;;;;5082312;28;20044;-62
2023/07/02 02:40:13;;;;;;;64.72;24.33;;;;;;;;;;5086344;28;20048;-62
2023/07/02 02:42:40;;;;;;;65.57;24.90;;;;;;;;;;5087138;28;20044;-61
2023/07/02 02:45:07;;;;;;;61.78;25.63;;;;;;;;;;5102816;28;20110;-61
2023/07/02 02:47:34;;;;;;;68.95;25.05;;;;;;;;;;5105417;28;20145;-61
2023/07/02 02:50:01;;;;;;;84.82;25.23;;;;;;;;;;5100298;28;20097;-60
2023/07/02 02:52:27;;;;;;;56.53;22.63;;;;;;;;;;5101249;28;20062;-62
2023/07/02 02:54:54;;;;;;;59.85;23.88;;;;;;;;;;5085454;28;20047;-61
2023/07/02 02:57:20;;;;;;;58.35;24.38;;;;;;;;;;5106884;28;20039;-61
2023/07/02 02:59:47;;;;;;;61.15;23.55;;;;;;;;;;5090961;28;20040;-64
2023/07/02 03:02:14;;;;;;;62.22;23.52;;;;;;;;;;5101921;28;20080;-60
2023/07/02 03:04:41;;;;;;;64.32;22.77;;;;;;;;;;5068423;28;20056;-61
2023/07/02 03:07:08;;;;;;;54.47;21.20;;;;;;;;;;5087827;28;20051;-61
2023/07/02 03:09:34;;;;;;;59.38;22.95;;;;;;;;;;5100134;28;20100;-60
2023/07/02 03:12:01;;;;;;;75.55;24.33;;;;;;;;;;5097044;28;20445;-62
2023/07/02 03:14:28;;;;;;;58.60;22.75;;;;;;;;;;5085960;28;20039;-62
2023/07/02 03:16:54;;;;;;;91.63;25.90;;;;;;;;;;5081439;28;20058;-62
2023/07/02 03:19:21;;;;;;;52.63;23.10;;;;;;;;;;5082591;28;20044;-62
2023/07/02 03:21:48;;;;;;;50.83;22.13;;;;;;;;;;5075620;28;20139;-61
2023/07/02 03:24:16;;;;;;;54.38;23.05;;;;;;;;;;5103816;28;20043;-61
2023/07/02 03:26:43;;;;;;;58.55;22.17;;;;;;;;;;5099815;28;20097;-60
2023/07/02 03:29:10;;;;;;;62.60;23.60;;;;;;;;;;5101347;28;20040;-60
2023/07/02 03:31:36;;;;;;;68.93;23.85;;;;;;;;;;5097976;28;20463;-61
2023/07/02 03:34:08;;;;;;;57.63;23.70;;;;;;;;;;5084447;28;20071;-61
2023/07/02 03:36:35;;;;;;;55.47;23.42;;;;;;;;;;5101843;28;20441;-60
2023/07/02 03:39:03;;;;;;;66.18;22.83;;;;;;;;;;5107040;28;20380;-60
2023/07/02 03:41:30;;;;;;;55.67;22.20;;;;;;;;;;5082935;28;20209;-60
2023/07/02 03:43:57;;;;;;;96.28;23.65;;;;;;;;;;5083326;28;20146;-60
2023/07/02 03:46:23;;;;;;;55.83;21.52;;;;;;;;;;5101197;28;20040;-60
2023/07/02 03:48:50;;;;;;;59.50;22.38;;;;;;;;;;5105725;28;20051;-61
2023/07/02 03:51:16;;;;;;;64.30;23.30;;;;;;;;;;5101434;28;20043;-61
2023/07/02 03:53:43;;;;;;;56.80;22.42;;;;;;;;;;5068564;28;20086;-60
2023/07/02 03:56:10;;;;;;;59.60;20.92;;;;;;;;;;5102994;28;20039;-61
2023/07/02 03:58:36;;;;;;;56.83;21.58;;;;;;;;;;5103116;28;20044;-61
2023/07/02 04:01:03;;;;;;;57.40;20.60;;;;;;;;;;5066426;28;20101;-61
2023/07/02 04:03:30;;;;;;;47.17;19.63;;;;;;;;;;5081926;28;20043;-60
2023/07/02 04:05:56;;;;;;;64.00;22.13;;;;;;;;;;5099958;28;20053;-61
2023/07/02 04:08:24;;;;;;;74.00;22.33;;;;;;;;;;5102773;28;20066;-62
2023/07/02 04:10:51;;;;;;;81.05;22.73;;;;;;;;;;5098391;28;20400;-61
2023/07/02 04:13:18;;;;;;;61.65;22.40;;;;;;;;;;5080488;28;20511;-61
2023/07/02 04:15:44;;;;;;;48.60;20.55;;;;;;;;;;5103149;28;20552;-60
2023/07/02 04:18:11;;;;;;;51.28;20.27;;;;;;;;;;5082740;28;20047;-60
2023/07/02 04:20:38;;;;;;;51.00;19.83;;;;;;;;;;5102085;28;20047;-62
2023/07/02 04:23:08;;;;;;;102.75;23.58;;;;;;;;;;5084237;28;20069;-61
2023/07/02 04:25:34;;;;;;;53.90;19.98;;;;;;;;;;5080968;28;20048;-60
2023/07/02 04:28:21;;;;;;;55.97;21.92;;;;;;;;;;5100300;28;20064;-61
2023/07/02 04:30:49;;;;;;;66.75;20.50;;;;;;;;;;5085096;28;20048;-61
2023/07/02 04:33:17;;;;;;;56.35;20.55;;;;;;;;;;5100464;28;20059;-61
2023/07/02 04:35:44;;;;;;;67.07;21.67;;;;;;;;;;5092328;28;20143;-61
2023/07/02 04:38:12;;;;;;;73.72;21.40;;;;;;;;;;5102942;28;20127;-61
2023/07/02 04:40:39;;;;;;;47.20;20.48;;;;;;;;;;5054267;28;20470;-62
2023/07/02 04:43:05;;;;;;;45.80;18.20;;;;;;;;;;5101418;28;20067;-61
2023/07/02 04:45:35;;;;;;;55.03;19.27;;;;;;;;;;5099474;28;20542;-61
2023/07/02 04:48:02;;;;;;;61.35;18.88;;;;;;;;;;5066657;28;20036;-61
2023/07/02 04:50:29;;;;;;;66.63;21.02;;;;;;;;;;5080887;28;20111;-61
2023/07/02 04:52:56;;;;;;;80.93;19.73;;;;;;;;;;5081337;28;20043;-61
2023/07/02 04:55:23;;;;;;;52.90;20.33;;;;;;;;;;5102412;28;20449;-61
2023/07/02 04:57:49;;;;;;;64.22;18.55;;;;;;;;;;5089290;28;20477;-61
2023/07/02 05:00:16;;;;;;;60.17;18.45;;;;;;;;;;5100868;28;20400;-61
2023/07/02 05:02:43;;;;;;;60.17;18.80;;;;;;;;;;5099987;28;20724;-61
2023/07/02 05:05:09;;;;;;;73.00;19.55;;;;;;;;;;5100284;28;20078;-61
2023/07/02 05:07:36;;;;;;;48.75;17.58;;;;;;;;;;5098154;28;20051;-60
2023/07/02 05:10:03;;;;;;;54.90;17.95;;;;;;;;;;5082733;28;20129;-61
2023/07/02 05:12:30;;;;;;;50.97;17.85;;;;;;;;;;5103578;28;20442;-61
2023/07/02 05:14:56;;;;;;;40.90;16.40;;;;;;;;;;5084240;28;20059;-61
2023/07/02 05:17:23;;;;;;;44.25;16.23;;;;;;;;;;5101268;28;20054;-61
2023/07/02 05:19:50;;;;;;;69.85;18.33;;;;;;;;;;5079785;28;20047;-62
2023/07/02 05:22:17;;;;;;;53.40;18.17;;;;;;;;;;5084964;28;20048;-61
2023/07/02 05:24:46;;;;;;;51.50;17.20;;;;;;;;;;5081670;28;20044;-61
2023/07/02 05:27:12;;;;;;;50.45;17.05;;;;;;;;;;5083919;28;20044;-61
2023/07/02 05:29:39;;;;;;;51.13;18.02;;;;;;;;;;5108348;28;20127;-61
2023/07/02 05:32:06;;;;;;;102.78;20.40;;;;;;;;;;5086358;28;20468;-62
2023/07/02 05:34:34;;;;;;;55.70;17.02;;;;;;;;;;5103981;28;20448;-61
2023/07/02 05:37:00;;;;;;;50.08;16.80;;;;;;;;;;5085854;28;20048;-61
2023/07/02 05:39:27;;;;;;;49.97;15.23;;;;;;;;;;5106833;28;20044;-61
2023/07/02 05:41:54;;;;;;;56.92;16.30;;;;;;;;;;5084147;28;20044;-63
2023/07/02 05:44:20;;;;;;;62.78;18.38;;;;;;;;;;5105470;28;20389;-61
2023/07/02 05:46:50;;;;;;;44.72;15.48;;;;;;;;;;5099933;28;20051;-62
2023/07/02 05:49:17;;;;;;;59.35;16.35;;;;;;;;;;5105845;28;20043;-59
2023/07/02 05:51:43;;;;;;;50.08;16.20;;;;;;;;;;5092158;28;20071;-60
2023/07/02 05:54:10;;;;;;;43.00;15.07;;;;;;;;;;5104926;28;20464;-59
2023/07/02 05:56:36;;;;;;;55.97;16.10;;;;;;;;;;5104271;28;20508;-58
2023/07/02 05:59:03;;;;;;;94.80;17.63;;;;;;;;;;5083451;28;20056;-60
2023/07/02 06:01:30;;;;;;;37.85;13.90;;;;;;;;;;5105471;28;20051;-58
2023/07/02 06:03:56;;;;;;;43.58;15.00;;;;;;;;;;5105113;28;20047;-59
2023/07/02 06:06:24;;;;;;;49.15;12.88;;;;;;;;;;5099678;28;20035;-60
2023/07/02 06:08:51;;;;;;;47.97;13.05;;;;;;;;;;5085633;28;20097;-60
2023/07/02 06:11:17;;;;;;;46.30;12.18;;;;;;;;;;5101870;28;20047;-61
2023/07/02 06:13:44;;;;;;;60.25;11.88;;;;;;;;;;5100294;28;20043;-59
2023/07/02 06:16:11;;;;;;;36.40;9.18;;;;;;;;;;5102474;28;20067;-59
2023/07/02 06:18:37;;;;;;;37.05;9.45;;;;;;;;;;5101782;28;20072;-60
2023/07/02 06:21:04;;;;;;;36.58;9.52;;;;;;;;;;5101610;28;20032;-59
2023/07/02 06:23:39;;;;;;;44.08;9.52;;;;;;;;;;5104119;28;20039;-58
2023/07/02 06:26:05;;;;;;;82.20;11.43;;;;;;;;;;5098880;28;20055;-60
2023/07/02 06:28:32;;;;;;;46.70;9.00;;;;;;;;;;5102463;28;20036;-58
2023/07/02 06:30:59;;;;;;;36.00;8.25;;;;;;;;;;5103986;28;20036;-59
2023/07/02 06:33:25;;;;;;;45.75;8.38;;;;;;;;;;5103477;28;20047;-60
2023/07/02 06:35:52;;;;;;;37.80;8.30;;;;;;;;;;5103616;28;20040;-59
2023/07/02 06:38:18;;;;;;;54.53;9.27;;;;;;;;;;5103195;28;20093;-61
2023/07/02 06:40:45;;;;;;;42.33;8.60;;;;;;;;;;5102190;28;20184;-58
2023/07/02 06:43:12;;;;;;;48.72;9.32;;;;;;;;;;5102056;28;20063;-60
2023/07/02 06:45:41;;;;;;;25.95;7.50;;;;;;;;;;5104398;28;20101;-59
2023/07/02 06:48:08;;;;;;;28.35;8.30;;;;;;;;;;5104315;28;20131;-59
2023/07/02 06:50:34;;;;;;;62.33;9.63;;;;;;;;;;5103512;28;20114;-60
2023/07/02 06:53:01;;;;;;;81.85;11.77;;;;;;;;;;5100421;28;20040;-60
2023/07/02 06:55:27;;;;;;;40.03;8.45;;;;;;;;;;5087492;28;20446;-59
2023/07/02 06:57:54;;;;;;;45.70;8.88;;;;;;;;;;5102849;28;20048;-60
2023/07/02 07:00:21;;;;;;;41.97;8.18;;;;;;;;;;5081734;28;20097;-59
2023/07/02 07:02:47;;;;;;;60.97;10.05;;;;;;;;;;5098778;28;20055;-59
2023/07/02 07:05:14;;;;;;;57.97;9.50;;;;;;;;;;5102871;28;20114;-60
2023/07/02 07:07:41;;;;;;;56.85;9.57;;;;;;;;;;5084691;28;20481;-59
2023/07/02 07:10:08;;;;;;;40.67;8.80;;;;;;;;;;5099915;28;20044;-59
2023/07/02 07:12:34;;;;;;;45.47;8.93;;;;;;;;;;5102943;28;20036;-59
2023/07/02 07:15:01;;;;;;;36.65;8.10;;;;;;;;;;5103202;28;20094;-59
2023/07/02 07:17:29;;;;;;;33.08;7.82;;;;;;;;;;5090553;28;20044;-59
2023/07/02 07:19:56;;;;;;;97.55;12.00;;;;;;;;;;5101238;28;20077;-61
2023/07/02 07:22:25;;;;;;;51.33;8.02;;;;;;;;;;5104386;28;20043;-59
2023/07/02 07:24:51;;;;;;;47.70;8.57;;;;;;;;;;5085241;28;20043;-59
2023/07/02 07:27:18;;;;;;;37.30;7.75;;;;;;;;;;5084588;28;20404;-59
2023/07/02 07:29:45;;;;;;;44.28;8.20;;;;;;;;;;5100079;28;20493;-59
2023/07/02 07:32:11;;;;;;;77.85;10.25;;;;;;;;;;5102566;28;20510;-59
2023/07/02 07:34:38;;;;;;;55.30;8.27;;;;;;;;;;5102823;28;20043;-60
2023/07/02 07:37:05;;;;;;;40.58;7.05;;;;;;;;;;5104527;28;20036;-59
2023/07/02 07:39:31;;;;;;;49.83;7.38;;;;;;;;;;5096443;28;20040;-59
2023/07/02 07:41:58;;;;;;;42.03;6.72;;;;;;;;;;5103242;28;20466;-66
2023/07/02 07:44:30;;;;;;;47.72;7.25;;;;;;;;;;5103731;28;20130;-60
2023/07/02 07:47:04;;;;;;;117.90;12.32;;;;;;;;;;5101982;28;20074;-61
2023/07/02 07:49:31;;;;;;;29.00;6.15;;;;;;;;;;5100681;28;20044;-60
2023/07/02 07:51:58;;;;;;;33.20;7.35;;;;;;;;;;5102340;28;20123;-59
2023/07/02 07:54:24;;;;;;;36.55;7.30;;;;;;;;;;5105447;28;20042;-60
2023/07/02 07:56:51;;;;;;;46.55;7.47;;;;;;;;;;5100713;28;20040;-60
2023/07/02 07:59:18;;;;;;;52.63;8.38;;;;;;;;;;5101245;28;20407;-60
2023/07/02 08:01:46;;;;;;;24.98;7.30;;;;;;;;;;5100708;28;20481;-61
2023/07/02 08:04:13;;;;;;;41.13;7.00;;;;;;;;;;5097964;28;20036;-61
2023/07/02 08:06:39;;;;;;;49.88;7.60;;;;;;;;;;5099755;28;20097;-61
2023/07/02 08:09:06;;;;;;;43.58;7.05;;;;;;;;;;5092161;28;20062;-60
2023/07/02 08:11:34;;;;;;;34.03;6.63;;;;;;;;;;5100347;28;20116;-61
2023/07/02 08:14:00;;;;;;;77.50;8.45;;;;;;;;;;5082386;28;20039;-61
2023/07/02 08:16:27;;;;;;;43.38;5.75;;;;;;;;;;5097595;28;20043;-61
2023/07/02 08:18:54;;;;;;;32.45;5.35;;;;;;;;;;5076149;28;20035;-61
2023/07/02 08:21:20;;;;;;;43.92;5.47;;;;;;;;;;5100659;28;20040;-61
2023/07/02 08:23:47;;;;;;;34.30;5.00;;;;;;;;;;5095648;28;20044;-61
2023/07/02 08:26:14;;;;;;;30.98;4.53;;;;;;;;;;5098026;28;20483;-60
2023/07/02 08:28:41;;;;;;;54.45;6.25;;;;;;;;;;5096840;28;20071;-61
2023/07/02 08:31:07;;;;;;;58.20;6.63;;;;;;;;;;5100054;28;20117;-61
2023/07/02 08:33:34;;;;;;;43.75;5.25;;;;;;;;;;5075828;28;20042;-61
2023/07/02 08:36:01;;;;;;;31.17;3.92;;;;;;;;;;5096315;28;20044;-61
2023/07/02 08:38:28;;;;;;;61.25;6.43;;;;;;;;;;5094512;28;20488;-61
2023/07/02 08:40:54;;;;;;;52.60;5.88;;;;;;;;;;5077459;28;20044;-61
2023/07/02 08:43:21;;;;;;;30.10;4.82;;;;;;;;;;5096262;28;20044;-61
2023/07/02 08:45:48;;;;;;;22.35;4.00;;;;;;;;;;5095544;28;20494;-61
2023/07/02 08:48:14;;;;;;;35.17;5.20;;;;;;;;;;5095644;28;20032;-61
2023/07/02 08:50:42;;;;;;;46.22;4.88;;;;;;;;;;5093483;28;20048;-62
2023/07/02 08:53:08;;;;;;;100.45;9.35;;;;;;;;;;5089940;28;20060;-62
2023/07/02 08:55:36;;;;;;;44.58;5.15;;;;;;;;;;5101275;28;20043;-60
2023/07/02 08:58:02;;;;;;;27.42;4.45;;;;;;;;;;5097194;28;20508;-60
2023/07/02 09:00:35;;;;;;;32.20;4.57;;;;;;;;;;5099939;28;20047;-60
2023/07/02 09:03:15;;;;;;;40.10;4.53;;;;;;;;;;5105840;28;20475;-60
2023/07/02 09:05:49;;;;;;;36.97;4.57;;;;;;;;;;5102869;28;20502;-59
2023/07/02 09:08:22;;;;;;;58.22;6.22;;;;;;;;;;5106510;28;20464;-60
2023/07/02 09:10:49;;;;;;;30.27;4.80;;;;;;;;;;5100775;28;20446;-60
2023/07/02 09:13:16;;;;;;;45.17;4.95;;;;;;;;;;5105477;28;20048;-60
2023/07/02 09:15:43;;;;;;;59.40;5.80;;;;;;;;;;5104008;28;20047;-60
2023/07/02 09:18:20;;;;;;;54.20;6.15;;;;;;;;;;5108874;28;20044;-62
2023/07/02 09:20:46;;;;;;;30.17;4.40;;;;;;;;;;5100703;28;20035;-62
2023/07/02 09:23:14;;;;;;;47.72;5.97;;;;;;;;;;5104293;28;20051;-59
2023/07/02 09:25:40;;;;;;;57.53;6.25;;;;;;;;;;5104055;28;20075;-61
2023/07/02 09:28:19;;;;;;;36.60;5.05;;;;;;;;;;5107939;28;20136;-61
2023/07/02 09:30:52;;;;;;;28.63;5.00;;;;;;;;;;5099288;28;20047;-61
2023/07/02 09:33:19;;;;;;;27.90;4.68;;;;;;;;;;5105078;28;20032;-61
2023/07/02 09:35:46;;;;;;;31.35;5.00;;;;;;;;;;5101815;28;20037;-61
2023/07/02 09:38:13;;;;;;;52.28;6.35;;;;;;;;;;5086978;28;20049;-61
2023/07/02 09:40:50;;;;;;;35.50;4.95;;;;;;;;;;5085311;28;20100;-62
2023/07/02 09:43:18;;;;;;;24.42;4.55;;;;;;;;;;5088190;28;20066;-62
2023/07/02 09:45:46;;;;;;;15.63;4.13;;;;;;;;;;5093732;28;20050;-61
2023/07/02 09:48:16;;;;;;;27.00;4.32;;;;;;;;;;5104097;28;20051;-61
2023/07/02 09:50:44;;;;;;;41.85;5.57;;;;;;;;;;5107954;28;20396;-61
2023/07/02 09:53:11;;;;;;;70.13;7.63;;;;;;;;;;5104504;28;20127;-61
2023/07/02 09:55:38;;;;;;;23.05;4.57;;;;;;;;;;5102007;28;20096;-61
2023/07/02 09:58:05;;;;;;;24.77;4.85;;;;;;;;;;5104491;28;20077;-61
2023/07/02 10:00:32;;;;;;;42.63;5.57;;;;;;;;;;5108336;28;20112;-61
2023/07/02 10:03:00;;;;;;;33.58;4.88;;;;;;;;;;5102908;28;20523;-61
2023/07/02 10:05:26;;;;;;;36.78;5.10;;;;;;;;;;5101583;28;20054;-61
2023/07/02 10:07:53;;;;;;;48.03;5.45;;;;;;;;;;5102869;28;20040;-61
2023/07/02 10:10:29;;;;;;;21.73;3.45;;;;;;;;;;5106601;28;20120;-61
2023/07/02 10:12:56;;;;;;;62.13;6.13;;;;;;;;;;5103651;28;20031;-62
2023/07/02 10:15:27;;;;;;;38.13;4.57;;;;;;;;;;5100859;28;20039;-61
2023/07/02 10:17:57;;;;;;;42.72;5.00;;;;;;;;;;5100622;28;20042;-61
2023/07/02 10:20:35;;;;;;;32.90;4.38;;;;;;;;;;5085046;28;20076;-62
2023/07/02 10:23:02;;;;;;;57.92;6.28;;;;;;;;;;5081863;28;20403;-61
2023/07/02 10:25:29;;;;;;;23.30;3.88;;;;;;;;;;5085180;28;20032;-62
2023/07/02 10:27:56;;;;;;;30.60;4.22;;;;;;;;;;5106218;28;20044;-62
2023/07/02 10:30:37;;;;;;;41.85;4.80;;;;;;;;;;5085056;28;20113;-64
2023/07/02 10:33:16;;;;;;;42.50;5.32;;;;;;;;;;5080863;28;20516;-66
2023/07/02 10:35:44;;;;;;;25.77;3.92;;;;;;;;;;5085686;28;20078;-66
2023/07/02 10:38:19;;;;;;;69.03;6.07;;;;;;;;;;5068559;28;20048;-63
2023/07/02 10:40:46;;;;;;;32.10;4.32;;;;;;;;;;5086144;28;20062;-63
2023/07/02 10:43:13;;;;;;;28.80;4.20;;;;;;;;;;5107241;28;20047;-63
2023/07/02 10:45:39;;;;;;;25.77;3.78;;;;;;;;;;5082059;28;20052;-71
2023/07/02 10:48:10;;;;;;;37.78;4.30;;;;;;;;;;5105067;28;20052;-63
2023/07/02 10:50:37;;;;;;;49.17;5.25;;;;;;;;;;5105937;28;20466;-63
2023/07/02 10:53:03;;;;;;;63.55;6.20;;;;;;;;;;5104278;28;20048;-64
2023/07/02 10:55:31;;;;;;;16.17;2.78;;;;;;;;;;5085666;28;20048;-63
2023/07/02 10:58:05;;;;;;;30.58;4.07;;;;;;;;;;5101436;28;20043;-63
2023/07/02 11:00:31;;;;;;;32.30;3.90;;;;;;;;;;5087839;28;20039;-65
2023/07/02 11:02:59;;;;;;;31.48;3.65;;;;;;;;;;5101679;28;20060;-71
2023/07/02 11:05:26;;;;;;;49.28;5.00;;;;;;;;;;5101048;28;20472;-60
2023/07/02 11:08:08;;;;;;;47.15;4.57;;;;;;;;;;5064215;28;20072;-61
2023/07/02 11:16:32;;;;;;;45.88;4.20;;;;;;;;;;5011917;28;20130;-61
2023/07/02 11:19:08;;;;;;;20.98;2.83;;;;;;;;;;5034640;28;20494;-62
2023/07/02 11:21:35;;;;;;;27.25;2.92;;;;;;;;;;5017578;28;20379;-63
2023/07/02 11:24:06;;;;;;;25.27;3.22;;;;;;;;;;5023257;28;20479;-62
2023/07/02 11:26:40;;;;;;;47.22;4.63;;;;;;;;;;5022036;28;20049;-64
2023/07/02 11:29:18;;;;;;;72.78;6.15;;;;;;;;;;5022679;28;20100;-66
2023/07/02 11:31:44;;;;;;;51.63;4.75;;;;;;;;;;5019348;28;20112;-62
2023/07/02 11:34:21;;;;;;;23.17;3.00;;;;;;;;;;5025557;28;20455;-61
2023/07/02 11:36:52;;;;;;;23.80;3.17;;;;;;;;;;5019603;28;20073;-63
2023/07/02 11:39:19;;;;;;;24.05;3.17;;;;;;;;;;5020408;28;20049;-63
2023/07/02 11:41:47;;;;;;;41.30;4.60;;;;;;;;;;5025987;28;20426;-61
2023/07/02 11:44:15;;;;;;;59.38;5.57;;;;;;;;;;5017994;28;20050;-62
2023/07/02 11:46:42;;;;;;;16.80;2.53;;;;;;;;;;5009285;28;20054;-60
2023/07/02 11:49:09;;;;;;;37.97;4.38;;;;;;;;;;5020775;28;20092;-61
2023/07/02 11:51:36;;;;;;;61.45;5.40;;;;;;;;;;5019122;28;20482;-61
2023/07/02 11:54:04;;;;;;;47.58;4.65;;;;;;;;;;5010902;28;20045;-61
2023/07/02 11:56:31;;;;;;;30.42;3.47;;;;;;;;;;5023116;28;20041;-61
2023/07/02 11:58:57;;;;;;;30.52;3.42;;;;;;;;;;5020318;28;20125;-63
2023/07/02 12:01:24;;;;;;;32.50;3.25;;;;;;;;;;5007305;28;20053;-63
2023/07/02 12:03:51;;;;;;;31.33;3.83;;;;;;;;;;5004640;28;20137;-61
2023/07/02 12:06:18;;;;;;;13.30;2.60;;;;;;;;;;5003011;28;20060;-61
2023/07/02 12:08:44;;;;;;;18.75;2.70;;;;;;;;;;5003914;28;21336;-62
2023/07/02 12:11:11;;;;;;;79.97;6.38;;;;;;;;;;5003545;28;20097;-61
2023/07/02 12:13:38;;;;;;;30.27;3.60;;;;;;;;;;5004053;28;20052;-60
2023/07/02 12:16:04;;;;;;;18.52;2.70;;;;;;;;;;5024560;28;20487;-61
2023/07/02 12:18:31;;;;;;;55.08;4.88;;;;;;;;;;5020529;28;20037;-61
2023/07/02 12:20:58;;;;;;;26.33;3.45;;;;;;;;;;5022350;28;20041;-62
2023/07/02 12:23:24;;;;;;;40.42;5.00;;;;;;;;;;5020208;28;20122;-61
2023/07/02 12:25:51;;;;;;;21.10;3.00;;;;;;;;;;5016853;28;20096;-61
2023/07/02 12:28:18;;;;;;;17.08;2.85;;;;;;;;;;5003620;28;20045;-61
2023/07/02 12:30:45;;;;;;;24.50;5.32;;;;;;;;;;5020272;28;20141;-60
2023/07/02 12:33:11;;;;;;;844.63;777.88;;;;;;;;;;5039906;28;20046;-60
2023/07/02 12:35:38;;;;;;;920.53;848.17;;;;;;;;;;5021271;28;20523;-57
2023/07/02 12:38:07;;;;;;;863.92;793.25;;;;;;;;;;5020054;28;20525;-58
2023/07/02 12:40:33;;;;;;;830.58;765.50;;;;;;;;;;5020361;28;20041;-60
2023/07/02 12:43:00;;;;;;;815.40;751.40;;;;;;;;;;5006465;28;20042;-60
2023/07/02 12:45:27;;;;;;;775.90;713.45;;;;;;;;;;5034285;28;20042;-59
2023/07/02 12:47:53;;;;;;;759.63;700.17;;;;;;;;;;5020113;28;20467;-59
2023/07/02 12:50:20;;;;;;;823.33;757.85;;;;;;;;;;5021292;28;20390;-61
2023/07/02 12:52:47;;;;;;;965.17;889.70;;;;;;;;;;5023039;28;20044;-59
2023/07/02 12:55:13;;;;;;;976.15;898.33;;;;;;;;;;5019905;28;20058;-60
2023/07/02 12:57:40;;;;;;;991.80;913.75;;;;;;;;;;5023297;28;20041;-59
2023/07/02 13:00:08;;;;;;;969.20;892.50;;;;;;;;;;5020952;28;20478;-59
2023/07/02 13:02:35;;;;;;;953.65;876.90;;;;;;;;;;5021746;28;20124;-60
2023/07/02 13:05:19;;;;;;;628.28;573.63;;;;;;;;;;5022526;28;20037;-59
2023/07/02 13:07:46;;;;;;;915.58;832.83;;;;;;;;;;5023526;28;20510;-58
2023/07/02 13:10:12;;;;;;;865.05;796.45;;;;;;;;;;5015939;28;20046;-59
2023/07/02 13:12:39;;;;;;;934.28;859.85;;;;;;;;;;5020052;28;20112;-59
2023/07/02 13:15:06;;;;;;;960.63;883.90;;;;;;;;;;5005554;28;20096;-54
2023/07/02 13:17:33;;;;;;;948.08;873.20;;;;;;;;;;5019553;28;20037;-59
2023/07/02 13:19:59;;;;;;;918.40;843.13;;;;;;;;;;5020652;28;20087;-59
2023/07/02 13:22:26;;;;;;;412.73;383.42;;;;;;;;;;5035259;28;20057;-55
2023/07/02 13:24:52;;;;;;;330.10;306.38;;;;;;;;;;5003781;28;20053;-54
2023/07/02 13:27:19;;;;;;;314.45;291.70;;;;;;;;;;5020272;28;20453;-60
2023/07/02 13:29:46;;;;;;;288.63;266.70;;;;;;;;;;5020738;28;20116;-60
2023/07/02 13:32:13;;;;;;;581.55;532.17;;;;;;;;;;5020927;28;20045;-58
2023/07/02 13:34:39;;;;;;;644.92;595.58;;;;;;;;;;5037263;28;20073;-62
2023/07/02 13:37:06;;;;;;;357.20;333.45;;;;;;;;;;5005610;28;20506;-59
2023/07/02 13:39:33;;;;;;;302.90;281.55;;;;;;;;;;5034631;28;20045;-63
2023/07/02 13:42:00;;;;;;;306.90;284.80;;;;;;;;;;5020901;28;20056;-59
2023/07/02 13:44:26;;;;;;;545.20;504.30;;;;;;;;;;5003966;28;20045;-64
2023/07/02 13:46:53;;;;;;;476.40;443.20;;;;;;;;;;5023797;28;20047;-59
2023/07/02 13:49:21;;;;;;;439.38;408.58;;;;;;;;;;5029882;28;20091;-59
2023/07/02 13:51:50;;;;;;;435.10;404.75;;;;;;;;;;4997619;28;20050;-62
2023/07/02 13:54:18;;;;;;;426.65;396.00;;;;;;;;;;5024967;28;20046;-60
2023/07/02 13:56:46;;;;;;;427.20;392.90;;;;;;;;;;5047498;28;20563;-59
2023/07/02 13:59:16;;;;;;;429.45;394.25;;;;;;;;;;5027769;28;20069;-60
2023/07/02 14:01:43;;;;;;;405.75;375.85;;;;;;;;;;5043421;28;20410;-60
2023/07/02 14:04:10;;;;;;;393.13;365.52;;;;;;;;;;5045034;28;20073;-63
2023/07/02 14:06:37;;;;;;;369.33;343.55;;;;;;;;;;5043958;28;20041;-60
2023/07/02 14:09:03;;;;;;;203.70;188.23;;;;;;;;;;5040103;28;20446;-68
2023/07/02 14:11:30;;;;;;;984.17;902.20;;;;;;;;;;5042317;28;20045;-64
2023/07/02 14:13:57;;;;;;;855.70;788.67;;;;;;;;;;5053819;28;20041;-68
2023/07/02 14:16:23;;;;;;;873.17;803.08;;;;;;;;;;5046773;28;20088;-64
2023/07/02 14:18:50;;;;;;;721.72;664.60;;;;;;;;;;5032930;28;20053;-67
2023/07/02 14:21:18;;;;;;;857.65;789.67;;;;;;;;;;5042718;28;20077;-69
2023/07/02 14:23:45;;;;;;;671.47;619.40;;;;;;;;;;5043903;28;20446;-64
2023/07/02 14:26:11;;;;;;;920.45;844.08;;;;;;;;;;5041842;28;20041;-63